createdAt,value
2022-12-01T00:00:56.451Z,85.20
2022-12-01T00:04:00.091Z,87.00
2022-12-01T00:07:03.694Z,82.20
2022-12-01T00:10:29.317Z,85.43
2022-12-01T00:13:35.009Z,79.30
2022-12-01T00:16:40.637Z,84.47
2022-12-01T00:19:44.238Z,92.47
2022-12-01T00:22:49.772Z,85.17
2022-12-01T00:25:53.368Z,76.00
2022-12-01T00:29:00.512Z,83.27
2022-12-01T00:32:04.131Z,75.67
2022-12-01T00:35:09.083Z,96.40
2022-12-01T00:38:12.633Z,83.33
2022-12-01T00:41:16.332Z,79.37
2022-12-01T00:44:21.409Z,86.37
2022-12-01T00:47:25.178Z,76.70
2022-12-01T00:50:28.752Z,84.23
2022-12-01T00:53:32.530Z,84.07
2022-12-01T00:56:36.170Z,86.20
2022-12-01T00:59:41.254Z,90.07
2022-12-01T01:02:45.019Z,84.20
2022-12-01T01:05:48.675Z,82.50
2022-12-01T01:08:52.349Z,86.40
2022-12-01T01:11:56.306Z,86.20
2022-12-01T01:15:01.291Z,91.20
2022-12-01T01:18:05.894Z,103.23
2022-12-01T01:21:14.515Z,94.27
2022-12-01T01:24:18.213Z,100.87
2022-12-01T01:27:21.833Z,94.53
2022-12-01T01:30:26.981Z,101.17
2022-12-01T01:33:31.886Z,93.63
2022-12-01T01:36:35.824Z,100.30
2022-12-01T01:39:39.475Z,95.50
2022-12-01T01:42:43.103Z,106.17
2022-12-01T01:45:48.169Z,95.20
2022-12-01T01:48:56.118Z,98.20
2022-12-01T01:52:00.101Z,91.13
2022-12-01T01:55:04.065Z,93.17
2022-12-01T01:58:12.110Z,91.57
2022-12-01T02:01:17.370Z,96.83
2022-12-01T02:04:22.123Z,104.23
2022-12-01T02:07:26.504Z,102.13
2022-12-01T02:10:46.093Z,107.77
2022-12-01T02:14:05.921Z,92.23
2022-12-01T02:17:27.853Z,92.13
2022-12-01T02:21:25.083Z,94.43
2022-12-01T02:25:11.770Z,96.60
2022-12-01T02:28:54.670Z,91.60
2022-12-01T02:32:12.917Z,87.73
2022-12-01T02:35:27.991Z,87.70
2022-12-01T02:38:42.134Z,96.83
2022-12-01T02:41:53.803Z,88.40
2022-12-01T02:44:59.864Z,89.50
2022-12-01T02:48:12.413Z,95.73
2022-12-01T02:51:21.973Z,92.20
2022-12-01T02:54:29.750Z,92.53
2022-12-01T02:57:33.502Z,88.10
2022-12-01T03:00:37.688Z,98.03
2022-12-01T03:04:12.309Z,98.60
2022-12-01T03:07:47.006Z,86.97
2022-12-01T03:10:56.274Z,94.97
2022-12-01T03:14:16.147Z,88.10
2022-12-01T03:17:36.674Z,84.43
2022-12-01T03:20:53.258Z,92.03
2022-12-01T03:24:03.172Z,100.47
2022-12-01T03:27:09.857Z,99.93
2022-12-01T03:30:16.659Z,100.37
2022-12-01T03:33:31.978Z,103.27
2022-12-01T03:36:43.775Z,92.03
2022-12-01T03:39:49.736Z,98.00
2022-12-01T03:42:59.007Z,94.33
2022-12-01T03:46:11.740Z,88.27
2022-12-01T03:49:18.887Z,101.03
2022-12-01T03:52:38.194Z,100.93
2022-12-01T03:55:47.931Z,104.03
2022-12-01T03:58:58.144Z,96.13
2022-12-01T04:02:01.895Z,100.77
2022-12-01T04:05:06.893Z,95.70
2022-12-01T04:08:11.938Z,91.77
2022-12-01T04:11:33.144Z,104.40
2022-12-01T04:14:36.832Z,94.47
2022-12-01T04:17:43.313Z,90.63
2022-12-01T04:20:47.602Z,88.20
2022-12-01T04:24:01.684Z,99.67
2022-12-01T04:27:05.403Z,96.30
2022-12-01T04:30:11.048Z,101.43
2022-12-01T04:33:14.635Z,88.83
2022-12-01T04:36:18.291Z,97.70
2022-12-01T04:39:23.561Z,101.83
2022-12-01T04:42:27.226Z,89.57
2022-12-01T04:45:30.866Z,91.20
2022-12-01T04:48:35.987Z,96.37
2022-12-01T04:51:39.702Z,93.13
2022-12-01T04:54:44.775Z,92.83
2022-12-01T04:57:48.643Z,85.87
2022-12-01T05:00:52.277Z,97.93
2022-12-01T05:03:56.199Z,94.30
2022-12-01T05:07:00.194Z,88.87
2022-12-01T05:10:05.830Z,92.80
2022-12-01T05:13:10.267Z,93.93
2022-12-01T05:16:16.706Z,95.07
2022-12-01T05:19:37.664Z,99.50
2022-12-01T05:23:04.269Z,91.37
2022-12-01T05:26:09.218Z,93.10
2022-12-01T05:29:13.851Z,88.30
2022-12-01T05:32:17.634Z,90.43
2022-12-01T05:35:21.348Z,90.73
2022-12-01T05:38:25.155Z,98.33
2022-12-01T05:41:30.314Z,87.13
2022-12-01T05:44:33.918Z,88.50
2022-12-01T05:47:37.521Z,83.93
2022-12-01T05:50:41.739Z,85.23
2022-12-01T05:53:46.451Z,89.90
2022-12-01T05:56:51.401Z,84.27
2022-12-01T06:00:06.897Z,94.57
2022-12-01T06:03:10.502Z,85.33
2022-12-01T06:06:14.626Z,87.13
2022-12-01T06:09:18.389Z,88.23
2022-12-01T06:12:23.485Z,86.70
2022-12-01T06:15:27.853Z,91.33
2022-12-01T06:18:34.004Z,87.93
2022-12-01T06:21:37.727Z,105.05
2022-12-01T06:24:41.532Z,92.77
2022-12-01T06:27:47.066Z,91.23
2022-12-01T06:30:50.717Z,83.30
2022-12-01T06:33:54.475Z,85.67
2022-12-01T06:36:58.106Z,80.40
2022-12-01T06:40:01.745Z,76.60
2022-12-01T06:43:07.485Z,85.63
2022-12-01T06:46:11.231Z,90.97
2022-12-01T06:49:16.247Z,92.47
2022-12-01T06:52:19.929Z,83.37
2022-12-01T06:55:23.661Z,91.67
2022-12-01T06:58:29.119Z,83.77
2022-12-01T07:01:33.105Z,93.90
2022-12-01T07:04:36.727Z,97.20
2022-12-01T07:07:40.994Z,89.87
2022-12-01T07:10:44.902Z,88.83
2022-12-01T07:13:50.995Z,92.17
2022-12-01T07:16:58.058Z,80.27
2022-12-01T07:20:01.930Z,90.63
2022-12-01T07:23:05.607Z,86.03
2022-12-01T07:26:12.683Z,91.47
2022-12-01T07:29:17.841Z,85.13
2022-12-01T07:32:21.433Z,87.07
2022-12-01T07:35:25.140Z,89.37
2022-12-01T07:38:30.360Z,90.10
2022-12-01T07:41:33.942Z,87.67
2022-12-01T07:44:38.927Z,87.17
2022-12-01T07:47:42.587Z,89.37
2022-12-01T07:50:46.208Z,85.63
2022-12-01T07:53:51.640Z,90.17
2022-12-01T07:56:55.615Z,91.60
2022-12-01T08:00:00.610Z,86.17
2022-12-01T08:03:04.291Z,84.87
2022-12-01T08:06:09.569Z,94.63
2022-12-01T08:09:13.612Z,87.63
2022-12-01T08:12:17.291Z,90.00
2022-12-01T08:15:22.392Z,86.57
2022-12-01T08:18:26.356Z,84.37
2022-12-01T08:21:30.138Z,88.97
2022-12-01T08:24:33.901Z,84.23
2022-12-01T08:27:37.906Z,82.50
2022-12-01T08:30:42.927Z,86.20
2022-12-01T08:33:47.170Z,82.73
2022-12-01T08:36:50.850Z,90.67
2022-12-01T08:39:54.445Z,81.60
2022-12-01T08:42:58.918Z,85.13
2022-12-01T08:46:20.821Z,82.30
2022-12-01T08:49:24.664Z,84.23
2022-12-01T08:52:34.126Z,84.50
2022-12-01T08:55:38.193Z,85.93
2022-12-01T08:58:41.935Z,84.67
2022-12-01T09:01:57.476Z,84.47
2022-12-01T09:05:01.398Z,84.30
2022-12-01T09:08:22.717Z,77.93
2022-12-01T09:11:26.488Z,80.43
2022-12-01T09:14:30.250Z,71.87
2022-12-01T09:17:35.232Z,82.73
2022-12-01T09:20:38.900Z,78.10
2022-12-01T09:23:42.918Z,73.60
2022-12-01T09:26:46.623Z,79.17
2022-12-01T09:29:50.553Z,68.33
2022-12-01T09:32:55.740Z,73.63
2022-12-01T09:36:00.908Z,72.17
2022-12-01T09:39:05.992Z,76.97
2022-12-01T09:42:16.189Z,73.43
2022-12-01T09:45:27.996Z,78.17
2022-12-01T09:48:42.545Z,76.53
2022-12-01T09:51:46.656Z,75.17
2022-12-01T09:54:50.908Z,73.13
2022-12-01T09:57:57.913Z,71.37
2022-12-01T10:01:01.883Z,73.50
2022-12-01T10:04:16.114Z,75.20
2022-12-01T10:07:26.596Z,80.57
2022-12-01T10:10:37.082Z,82.83
2022-12-01T10:13:43.660Z,78.53
2022-12-01T10:17:01.898Z,74.67
2022-12-01T10:20:17.929Z,74.90
2022-12-01T10:23:39.961Z,75.37
2022-12-01T10:26:54.864Z,87.93
2022-12-01T10:30:08.166Z,73.77
2022-12-01T10:33:24.286Z,70.80
2022-12-01T10:36:33.009Z,68.23
2022-12-01T10:39:42.015Z,66.97
2022-12-01T10:42:48.006Z,65.80
2022-12-01T10:45:52.303Z,63.00
2022-12-01T10:48:59.471Z,67.90
2022-12-01T10:52:04.610Z,70.20
2022-12-01T10:55:27.998Z,68.23
2022-12-01T10:58:35.320Z,66.90
2022-12-01T11:01:39.215Z,70.67
2022-12-01T11:04:51.905Z,67.53
2022-12-01T11:07:57.398Z,63.63
2022-12-01T11:11:01.151Z,70.77
2022-12-01T11:14:17.916Z,63.73
2022-12-01T11:17:38.270Z,69.63
2022-12-01T11:20:42.844Z,69.13
2022-12-01T11:23:50.553Z,72.50
2022-12-01T11:26:54.559Z,76.60
2022-12-01T11:30:04.876Z,73.43
2022-12-01T11:33:08.691Z,66.67
2022-12-01T11:36:22.094Z,69.17
2022-12-01T11:39:32.464Z,68.10
2022-12-01T11:42:37.760Z,64.00
2022-12-01T11:45:42.523Z,68.67
2022-12-01T11:49:00.406Z,68.40
2022-12-01T11:52:23.836Z,66.03
2022-12-01T11:55:31.946Z,64.57
2022-12-01T11:58:35.626Z,67.20
2022-12-01T12:01:58.548Z,68.13
2022-12-01T12:05:57.645Z,65.27
2022-12-01T12:09:47.503Z,65.53
2022-12-01T12:13:10.555Z,60.97
2022-12-01T12:16:33.742Z,57.20
2022-12-01T12:20:08.619Z,59.77
2022-12-01T12:23:33.121Z,61.20
2022-12-01T12:26:45.927Z,56.23
2022-12-01T12:30:18.963Z,54.50
2022-12-01T12:33:50.600Z,58.67
2022-12-01T12:37:11.162Z,55.97
2022-12-01T12:40:42.246Z,62.07
2022-12-01T12:43:58.794Z,55.50
2022-12-01T12:47:23.596Z,62.80
2022-12-01T12:50:35.898Z,59.53
2022-12-01T12:53:50.275Z,64.70
2022-12-01T12:57:01.894Z,64.83
2022-12-01T13:00:15.560Z,59.43
2022-12-01T13:03:33.786Z,55.57
2022-12-01T13:06:44.881Z,53.33
2022-12-01T13:09:55.350Z,64.63
2022-12-01T13:13:13.955Z,62.30
2022-12-01T13:16:24.274Z,56.20
2022-12-01T13:19:34.824Z,67.20
2022-12-01T13:22:39.172Z,54.90
2022-12-01T13:25:45.487Z,59.37
2022-12-01T13:28:55.655Z,64.83
2022-12-01T13:31:59.724Z,70.83
2022-12-01T13:35:22.016Z,66.27
2022-12-01T13:38:31.162Z,62.57
2022-12-01T13:41:38.608Z,67.17
2022-12-01T13:44:45.949Z,67.13
2022-12-01T13:47:55.903Z,64.87
2022-12-01T13:51:03.954Z,65.27
2022-12-01T13:54:31.616Z,65.67
2022-12-01T13:57:38.238Z,78.20
2022-12-01T14:00:43.188Z,70.77
2022-12-01T14:03:57.071Z,68.33
2022-12-01T14:07:35.645Z,68.17
2022-12-01T14:10:39.711Z,63.40
2022-12-01T14:13:54.759Z,66.07
2022-12-01T14:17:02.639Z,63.87
2022-12-01T14:20:23.049Z,69.03
2022-12-01T14:23:33.349Z,66.50
2022-12-01T14:26:46.533Z,66.47
2022-12-01T14:29:50.171Z,62.13
2022-12-01T14:33:14.001Z,77.57
2022-12-01T14:36:38.052Z,64.20
2022-12-01T14:39:47.557Z,65.60
2022-12-01T14:43:13.781Z,56.87
2022-12-01T14:46:25.676Z,53.77
2022-12-01T14:49:36.351Z,51.50
2022-12-01T14:52:44.585Z,56.17
2022-12-01T14:55:56.410Z,54.53
2022-12-01T14:59:02.799Z,57.37
2022-12-01T15:02:12.312Z,58.37
2022-12-01T15:05:20.030Z,59.20
2022-12-01T15:08:41.953Z,54.90
2022-12-01T15:11:56.973Z,56.47
2022-12-01T15:15:01.000Z,56.83
2022-12-01T15:18:24.243Z,57.33
2022-12-01T15:21:31.785Z,51.97
2022-12-01T15:24:35.818Z,57.93
2022-12-01T15:27:41.053Z,56.33
2022-12-01T15:30:49.627Z,61.87
2022-12-01T15:33:55.522Z,51.73
2022-12-01T15:37:01.114Z,60.53
2022-12-01T15:43:41.319Z,54.77
2022-12-01T15:46:45.604Z,56.60
2022-12-01T15:49:50.778Z,67.53
2022-12-01T15:52:54.486Z,64.13
2022-12-01T15:55:59.835Z,72.80
2022-12-01T15:59:28.494Z,62.67
2022-12-01T16:02:34.593Z,68.40
2022-12-01T16:05:38.565Z,81.50
2022-12-01T16:08:42.444Z,68.80
2022-12-01T16:12:25.150Z,65.43
2022-12-01T16:15:30.164Z,69.07
2022-12-01T16:18:35.334Z,63.17
2022-12-01T16:21:47.985Z,68.00
2022-12-01T16:24:55.950Z,62.33
2022-12-01T16:27:59.922Z,64.63
2022-12-01T16:31:09.136Z,53.53
2022-12-01T16:34:44.519Z,62.17
2022-12-01T16:37:44.218Z,57.33
2022-12-01T16:40:49.938Z,63.27
2022-12-01T16:44:20.341Z,62.80
2022-12-01T16:47:21.946Z,56.83
2022-12-01T16:50:25.608Z,48.93
2022-12-01T16:53:29.250Z,60.77
2022-12-01T16:56:32.956Z,58.30
2022-12-01T16:59:36.589Z,53.37
2022-12-01T17:02:41.630Z,50.47
2022-12-01T17:05:45.299Z,55.80
2022-12-01T17:08:50.320Z,50.17
2022-12-01T17:11:56.269Z,45.50
2022-12-01T17:14:59.879Z,43.23
2022-12-01T17:18:05.057Z,43.87
2022-12-01T17:21:11.135Z,46.90
2022-12-01T17:24:18.822Z,47.23
2022-12-01T17:27:23.239Z,45.87
2022-12-01T17:30:27.340Z,49.83
2022-12-01T17:33:34.693Z,40.30
2022-12-01T17:36:38.589Z,39.23
2022-12-01T17:39:42.347Z,40.70
2022-12-01T17:42:50.469Z,36.83
2022-12-01T17:45:54.603Z,41.10
2022-12-01T17:48:59.923Z,39.87
2022-12-01T17:52:03.689Z,36.17
2022-12-01T17:55:08.903Z,45.77
2022-12-01T17:58:12.658Z,34.70
2022-12-01T18:01:21.390Z,36.20
2022-12-01T18:04:29.282Z,33.67
2022-12-01T18:07:33.020Z,38.27
2022-12-01T18:10:36.684Z,32.27
2022-12-01T18:13:42.442Z,33.40
2022-12-01T18:16:47.015Z,38.77
2022-12-01T18:19:52.084Z,38.43
2022-12-01T18:22:55.749Z,34.33
2022-12-01T18:26:05.130Z,35.57
2022-12-01T18:29:16.109Z,36.60
2022-12-01T18:32:19.790Z,37.80
2022-12-01T18:35:30.249Z,31.37
2022-12-01T18:38:35.287Z,27.10
2022-12-01T18:41:39.270Z,29.30
2022-12-01T18:44:43.186Z,26.17
2022-12-01T18:47:46.866Z,26.47
2022-12-01T18:50:57.885Z,28.20
2022-12-01T18:54:05.923Z,20.73
2022-12-01T18:57:09.682Z,24.13
2022-12-01T19:00:15.529Z,21.40
2022-12-01T19:03:22.221Z,24.03
2022-12-01T19:06:38.949Z,23.33
2022-12-01T19:09:42.894Z,24.50
2022-12-01T19:12:49.400Z,20.97
2022-12-01T19:15:53.468Z,30.57
2022-12-01T19:18:57.351Z,25.70
2022-12-01T19:22:02.629Z,24.90
2022-12-01T19:25:08.033Z,21.77
2022-12-01T19:28:11.638Z,26.57
2022-12-01T19:31:17.766Z,39.20
2022-12-01T19:34:21.663Z,29.07
2022-12-01T19:37:26.850Z,41.17
2022-12-01T19:40:30.927Z,33.10
2022-12-01T19:43:36.090Z,31.80
2022-12-01T19:46:39.855Z,32.60
2022-12-01T19:49:44.363Z,24.93
2022-12-01T19:52:51.800Z,24.73
2022-12-01T19:56:03.234Z,28.07
2022-12-01T19:59:08.035Z,28.87
2022-12-01T20:02:12.639Z,30.40
2022-12-01T20:05:16.887Z,33.43
2022-12-01T20:08:21.942Z,29.93
2022-12-01T20:11:26.394Z,34.60
2022-12-01T20:14:30.268Z,28.97
2022-12-01T20:17:37.364Z,35.90
2022-12-01T20:20:40.994Z,29.47
2022-12-01T20:23:48.566Z,40.13
2022-12-01T20:26:56.729Z,31.77
2022-12-01T20:30:00.506Z,32.70
2022-12-01T20:33:04.523Z,40.07
2022-12-01T20:36:09.586Z,35.50
2022-12-01T20:39:16.264Z,37.03
2022-12-01T20:42:22.291Z,42.57
2022-12-01T20:45:46.204Z,40.33
2022-12-01T20:48:50.136Z,51.83
2022-12-01T20:51:53.923Z,43.90
2022-12-01T20:54:58.984Z,44.37
2022-12-01T20:58:02.978Z,48.33
2022-12-01T21:01:11.232Z,49.80
2022-12-01T21:04:15.225Z,49.93
2022-12-01T21:07:19.921Z,52.47
2022-12-01T21:10:25.675Z,49.03
2022-12-01T21:13:42.361Z,109.60
2022-12-01T21:16:49.530Z,54.13
2022-12-01T21:20:01.850Z,49.70
2022-12-01T21:23:13.058Z,48.73
2022-12-01T21:26:19.117Z,57.07
2022-12-01T21:29:25.959Z,41.57
2022-12-01T21:32:37.709Z,45.47
2022-12-01T21:35:44.415Z,42.83
2022-12-01T21:38:50.694Z,44.23
2022-12-01T21:42:00.982Z,47.40
2022-12-01T21:45:18.830Z,46.33
2022-12-01T21:48:24.193Z,47.87
2022-12-01T21:51:28.009Z,47.10
2022-12-01T21:54:32.416Z,49.97
2022-12-01T21:57:44.816Z,55.00
2022-12-01T22:00:48.897Z,53.90
2022-12-01T22:03:54.177Z,49.50
2022-12-01T22:07:00.946Z,51.40
2022-12-01T22:10:55.304Z,51.97
2022-12-01T22:14:14.057Z,54.57
2022-12-01T22:17:22.002Z,56.97
2022-12-01T22:20:25.853Z,56.60
2022-12-01T22:23:34.813Z,55.37
2022-12-01T22:26:41.134Z,53.93
2022-12-01T22:29:49.128Z,51.57
2022-12-01T22:32:58.143Z,55.60
2022-12-01T22:36:02.095Z,57.70
2022-12-01T22:39:26.930Z,63.23
2022-12-01T22:42:35.978Z,58.10
2022-12-01T22:45:41.114Z,52.13
2022-12-01T22:48:47.811Z,55.03
2022-12-01T22:51:53.974Z,53.17
2022-12-01T22:54:57.713Z,57.40
2022-12-01T22:58:02.050Z,51.97
2022-12-01T23:01:23.619Z,52.03
2022-12-01T23:04:31.282Z,55.90
2022-12-01T23:07:37.493Z,53.63
2022-12-01T23:10:42.824Z,56.47
2022-12-01T23:13:46.374Z,56.83
2022-12-01T23:16:57.687Z,55.17
2022-12-01T23:20:27.021Z,62.13
2022-12-01T23:23:33.484Z,65.57
2022-12-01T23:26:37.245Z,64.67
2022-12-01T23:29:40.999Z,62.67
2022-12-01T23:32:49.224Z,63.80
2022-12-01T23:35:57.233Z,66.90
2022-12-01T23:39:08.007Z,74.70
2022-12-01T23:42:14.241Z,63.70
2022-12-01T23:45:22.725Z,66.23
2022-12-01T23:48:36.035Z,73.80
2022-12-01T23:51:45.427Z,65.30
2022-12-01T23:54:49.897Z,70.67
2022-12-01T23:57:55.326Z,58.87
